This is the latest recevied weather packets stored in our database for station/object SQ3MKP-13. If no packets are shown the sender has not sent any weather packets the latest 10 day(s).
| Time | Temp. | Humidity | Pressure | Rain* | Wind** | Luminosity | Snow |
|---|---|---|---|---|---|---|---|
| 1777508577 | 2.22° C | 75% | 1021.3 hPa | - | - | - | - |
| 1777508275 | 2.22° C | 74% | 1021.3 hPa | - | - | - | - |
| 1777507975 | 2.22° C | 73% | 1021.3 hPa | - | - | - | - |
| 1777507674 | 1.67° C | 74% | 1021.3 hPa | - | - | - | - |
| 1777507373 | 1.11° C | 78% | 1021.3 hPa | - | - | - | - |
| 1777507072 | 0.56° C | 82% | 1021.3 hPa | - | - | - | - |
| 1777506771 | 0.56° C | 82% | 1021.3 hPa | - | - | - | - |
| 1777506470 | 1.11° C | 80% | 1021.2 hPa | - | - | - | - |
| 1777506169 | 1.11° C | 80% | 1021.2 hPa | - | - | - | - |
| 1777505868 | 1.67° C | 80% | 1021.2 hPa | - | - | - | - |
| 1777505567 | 1.67° C | 78% | 1021.2 hPa | - | - | - | - |
| 1777505267 | 1.67° C | 78% | 1021.3 hPa | - | - | - | - |
| 1777504966 | 1.67° C | 78% | 1021.2 hPa | - | - | - | - |
| 1777504665 | 1.67° C | 78% | 1021.2 hPa | - | - | - | - |
| 1777504364 | 1.67° C | 77% | 1021.2 hPa | - | - | - | - |
| 1777504063 | 1.67° C | 76% | 1021.2 hPa | - | - | - | - |
| 1777503762 | 1.67° C | 77% | 1021.2 hPa | - | - | - | - |
| 1777503461 | 1.67° C | 77% | 1021.2 hPa | - | - | - | - |
| 1777503160 | 2.22° C | 74% | 1021.3 hPa | - | - | - | - |
| 1777502859 | 2.22° C | 75% | 1021.2 hPa | - | - | - | - |
| 1777502558 | 2.22° C | 76% | 1021.3 hPa | - | - | - | - |
| 1777502257 | 2.22° C | 76% | 1021.3 hPa | - | - | - | - |
| 1777501957 | 1.67° C | 76% | 1021.3 hPa | - | - | - | - |
| 1777501655 | 1.67° C | 75% | 1021.2 hPa | - | - | - | - |
| 1777501354 | 1.67° C | 73% | 1021.3 hPa | - | - | - | - |
* Rain since midnight (hover to see other rain measurements)
** Current wind speed in m/s (hover to see current wind gust speed)